Terminal Aerodrome Forecast
Issued by NWS

Home | Current Version | Previous Version | Text Only | Print | Product List | Glossary On
Versions: 1 2 3 4 5 6 7 8 9 10 11 12 13 14 15 16 17 18 19
000
FTUS43 KSGF 070200 AAA
TAFJLN
TAF AMD
KJLN 070228Z 0702/0724 21012KT 5SM -TSRA BR SCT020CB OVC035
      WS020/23040KT
      TEMPO 0702/0705 VRB25KT 2SM TSRA SCT015 OVC025CB
     FM071200 34007KT 4SM -RA BR BKN009 OVC025
     FM071500 32008KT 5SM -SHRA SCT007 OVC025=

USA.gov is the U.S. government's official web portal to all federal, state and local government web resources and services.